createdAt,value
2019-05-01T00:01:26.055Z,28.47
2019-05-01T00:04:02.167Z,28.17
2019-05-01T00:06:38.513Z,29.63
2019-05-01T00:09:09.174Z,31.43
2019-05-01T00:11:37.505Z,29.70
2019-05-01T00:14:07.020Z,29.30
2019-05-01T00:16:35.275Z,30.33
2019-05-01T00:19:03.967Z,29.73
2019-05-01T00:21:32.335Z,29.50
2019-05-01T00:24:00.605Z,27.73
2019-05-01T00:26:28.863Z,28.27
2019-05-01T00:28:57.144Z,27.77
2019-05-01T00:31:27.488Z,29.07
2019-05-01T00:33:55.835Z,29.97
2019-05-01T00:36:24.266Z,29.33
2019-05-01T00:38:52.615Z,28.17
2019-05-01T00:41:22.901Z,29.60
2019-05-01T00:43:51.256Z,32.17
2019-05-01T00:46:19.518Z,31.80
2019-05-01T00:48:47.862Z,31.60
2019-05-01T00:51:16.247Z,29.17
2019-05-01T00:53:44.503Z,32.37
2019-05-01T00:56:20.160Z,31.73
2019-05-01T00:59:01.189Z,30.80
2019-05-01T01:01:37.294Z,31.33
2019-05-01T01:04:05.663Z,30.47
2019-05-01T01:06:33.987Z,33.03
2019-05-01T01:09:02.251Z,32.80
2019-05-01T01:11:30.599Z,31.10
2019-05-01T01:13:58.859Z,32.30
2019-05-01T01:16:27.134Z,32.23
2019-05-01T01:18:55.475Z,32.20
2019-05-01T01:21:23.739Z,32.70
2019-05-01T01:23:52.011Z,32.73
2019-05-01T01:26:20.387Z,33.27
2019-05-01T01:28:49.763Z,34.33
2019-05-01T01:31:19.121Z,31.90
2019-05-01T01:33:47.405Z,33.33
2019-05-01T01:36:15.725Z,33.73
2019-05-01T01:38:44.081Z,31.60
2019-05-01T01:41:12.450Z,34.20
2019-05-01T01:43:57.323Z,33.60
2019-05-01T01:46:27.256Z,35.00
2019-05-01T01:48:55.655Z,34.10
2019-05-01T01:51:24.003Z,35.07
2019-05-01T01:53:52.279Z,33.90
2019-05-01T01:56:20.535Z,36.17
2019-05-01T01:58:48.811Z,34.13
2019-05-01T02:01:34.287Z,33.30
2019-05-01T02:04:07.208Z,33.70
2019-05-01T02:06:35.543Z,32.83
2019-05-01T02:09:05.187Z,34.07
2019-05-01T02:11:33.531Z,34.00
2019-05-01T02:14:01.888Z,33.90
2019-05-01T02:16:30.239Z,34.10
2019-05-01T02:18:58.658Z,34.27
2019-05-01T02:21:27.003Z,35.17
2019-05-01T02:23:55.279Z,33.20
2019-05-01T02:26:25.259Z,34.67
2019-05-01T02:28:55.155Z,34.53
2019-05-01T02:31:28.629Z,34.70
2019-05-01T02:33:55.078Z,32.47
2019-05-01T02:36:24.277Z,33.27
2019-05-01T02:38:53.158Z,34.30
2019-05-01T02:41:21.410Z,32.27
2019-05-01T02:43:50.149Z,32.83
2019-05-01T02:46:18.556Z,34.37
2019-05-01T02:49:09.903Z,33.47
2019-05-01T02:51:40.567Z,35.47
2019-05-01T02:54:08.983Z,35.40
2019-05-01T02:56:47.768Z,35.13
2019-05-01T02:59:16.109Z,34.73
2019-05-01T03:01:47.680Z,32.13
2019-05-01T03:04:14.447Z,30.37
2019-05-01T03:06:42.715Z,30.87
2019-05-01T03:09:11.070Z,30.07
2019-05-01T03:11:40.292Z,30.57
2019-05-01T03:14:11.354Z,32.07
2019-05-01T03:16:39.615Z,30.73
2019-05-01T03:19:25.927Z,30.83
2019-05-01T03:21:58.435Z,31.93
2019-05-01T03:24:29.491Z,33.77
2019-05-01T03:26:57.751Z,33.57
2019-05-01T03:29:26.011Z,33.20
2019-05-01T03:32:15.727Z,32.67
2019-05-01T03:34:27.499Z,34.03
2019-05-01T03:36:55.904Z,34.77
2019-05-01T03:39:24.188Z,35.17
2019-05-01T03:41:54.083Z,34.10
2019-05-01T03:44:22.407Z,36.33
2019-05-01T03:46:51.944Z,36.53
2019-05-01T03:49:20.217Z,34.77
2019-05-01T03:51:48.475Z,36.63
2019-05-01T03:54:16.764Z,34.83
2019-05-01T03:56:47.592Z,35.97
2019-05-01T03:59:16.105Z,33.30
2019-05-01T04:01:55.217Z,34.50
2019-05-01T04:04:28.125Z,35.10
2019-05-01T04:06:56.475Z,36.07
2019-05-01T04:09:24.763Z,36.87
2019-05-01T04:11:53.104Z,37.73
2019-05-01T04:14:21.443Z,37.17
2019-05-01T04:16:51.440Z,36.97
2019-05-01T04:19:20.631Z,38.83
2019-05-01T04:21:50.757Z,38.93
2019-05-01T04:24:19.124Z,34.50
2019-05-01T04:26:47.382Z,36.27
2019-05-01T04:29:17.288Z,37.40
2019-05-01T04:31:47.200Z,35.93
2019-05-01T04:34:22.998Z,37.50
2019-05-01T04:37:04.609Z,37.97
2019-05-01T04:39:32.892Z,37.67
2019-05-01T04:42:01.316Z,33.50
2019-05-01T04:44:29.600Z,36.10
2019-05-01T04:46:58.489Z,38.03
2019-05-01T04:49:26.749Z,35.70
2019-05-01T04:51:55.032Z,36.37
2019-05-01T04:54:23.379Z,36.93
2019-05-01T04:56:51.702Z,35.43
2019-05-01T04:59:20.052Z,36.10
2019-05-01T05:01:56.447Z,35.27
2019-05-01T05:04:24.674Z,34.50
2019-05-01T05:06:53.465Z,32.20
2019-05-01T05:09:23.367Z,32.17
2019-05-01T05:11:58.997Z,31.13
2019-05-01T05:14:28.971Z,31.13
2019-05-01T05:16:58.869Z,32.47
2019-05-01T05:19:27.156Z,33.63
2019-05-01T05:21:55.693Z,31.80
2019-05-01T05:24:24.043Z,31.93
2019-05-01T05:26:52.417Z,31.83
2019-05-01T05:29:20.759Z,31.90
2019-05-01T05:31:49.036Z,32.33
2019-05-01T05:34:19.401Z,33.63
2019-05-01T05:36:49.601Z,32.27
2019-05-01T05:39:19.499Z,29.57
2019-05-01T05:41:48.110Z,30.70
2019-05-01T05:44:16.447Z,29.97
2019-05-01T05:46:44.722Z,26.70
2019-05-01T05:49:13.084Z,30.60
2019-05-01T05:51:48.795Z,28.07
2019-05-01T05:54:31.440Z,30.27
2019-05-01T05:57:02.527Z,35.28
2019-05-01T05:59:32.771Z,30.57
2019-05-01T06:02:21.004Z,28.83
2019-05-01T06:04:52.056Z,28.27
2019-05-01T06:07:24.675Z,30.27
2019-05-01T06:10:08.003Z,28.93
2019-05-01T06:12:41.829Z,30.83
2019-05-01T06:15:13.116Z,31.40
2019-05-01T06:17:43.031Z,27.87
2019-05-01T06:20:25.797Z,25.93
2019-05-01T06:23:05.525Z,25.70
2019-05-01T06:25:36.134Z,24.90
2019-05-01T06:28:04.755Z,28.60
2019-05-01T06:30:33.943Z,26.53
2019-05-01T06:33:04.100Z,26.33
2019-05-01T06:35:34.067Z,28.23
2019-05-01T06:38:05.428Z,28.20
2019-05-01T06:40:38.751Z,24.93
2019-05-01T06:43:09.913Z,23.73
2019-05-01T06:45:40.383Z,24.20
2019-05-01T06:48:14.248Z,22.20
2019-05-01T06:50:51.091Z,24.77
2019-05-01T06:53:19.415Z,24.60
2019-05-01T06:55:47.833Z,25.97
2019-05-01T06:58:20.367Z,25.67
2019-05-01T07:00:46.099Z,22.23
2019-05-01T07:03:14.371Z,23.70
2019-05-01T07:05:44.713Z,20.77
2019-05-01T07:08:23.954Z,20.73
2019-05-01T07:10:44.376Z,21.03
2019-05-01T07:13:13.098Z,19.67
2019-05-01T07:15:41.367Z,19.67
2019-05-01T07:18:11.449Z,20.07
2019-05-01T07:20:41.346Z,19.33
2019-05-01T07:23:17.494Z,21.10
2019-05-01T07:25:45.564Z,22.47
2019-05-01T07:28:13.819Z,23.40
2019-05-01T07:30:49.991Z,21.27
2019-05-01T07:33:18.107Z,19.00
2019-05-01T07:35:46.388Z,19.73
2019-05-01T07:38:14.642Z,18.47
2019-05-01T07:40:42.929Z,17.53
2019-05-01T07:43:19.117Z,15.30
2019-05-01T07:45:47.517Z,17.57
2019-05-01T07:48:16.149Z,16.40
2019-05-01T07:50:44.415Z,15.87
2019-05-01T07:53:12.694Z,15.17
2019-05-01T07:55:40.994Z,16.00
2019-05-01T07:58:10.376Z,16.77
2019-05-01T08:00:47.125Z,15.43
2019-05-01T08:03:15.433Z,15.53
2019-05-01T08:05:45.421Z,15.33
2019-05-01T08:08:13.719Z,14.83
2019-05-01T08:10:41.982Z,15.67
2019-05-01T08:13:10.243Z,15.87
2019-05-01T08:15:38.531Z,14.97
2019-05-01T08:18:17.379Z,14.87
2019-05-01T08:21:05.538Z,14.37
2019-05-01T08:23:33.804Z,13.33
2019-05-01T08:26:04.050Z,15.30
2019-05-01T08:28:33.723Z,15.27
2019-05-01T08:31:03.663Z,15.03
2019-05-01T08:33:39.568Z,14.30
2019-05-01T08:36:11.704Z,14.07
2019-05-01T08:38:38.879Z,16.43
2019-05-01T08:41:07.167Z,15.73
2019-05-01T08:43:36.515Z,14.60
2019-05-01T08:46:18.364Z,12.37
2019-05-01T08:48:54.327Z,13.13
2019-05-01T08:51:22.617Z,13.17
2019-05-01T08:53:52.797Z,13.60
2019-05-01T08:56:22.086Z,13.37
2019-05-01T08:58:50.967Z,14.20
2019-05-01T09:01:19.238Z,13.60
2019-05-01T09:03:49.796Z,13.90
2019-05-01T09:06:17.498Z,14.40
2019-05-01T09:08:45.755Z,13.93
2019-05-01T09:11:14.021Z,12.97
2019-05-01T09:13:42.306Z,13.07
2019-05-01T09:16:10.569Z,12.23
2019-05-01T09:18:38.851Z,12.30
2019-05-01T09:21:07.171Z,12.30
2019-05-01T09:23:35.434Z,11.67
2019-05-01T09:26:16.120Z,12.23
2019-05-01T09:28:47.100Z,12.33
2019-05-01T09:31:16.997Z,11.20
2019-05-01T09:33:45.271Z,12.33
2019-05-01T09:36:13.529Z,12.60
2019-05-01T09:38:41.791Z,11.93
2019-05-01T09:41:10.067Z,12.03
2019-05-01T09:43:38.331Z,11.67
2019-05-01T09:46:06.908Z,11.00
2019-05-01T09:48:35.179Z,10.80
2019-05-01T09:51:07.590Z,10.80
2019-05-01T09:53:41.226Z,11.17
2019-05-01T09:56:11.323Z,10.63
2019-05-01T09:58:39.580Z,10.50
2019-05-01T10:01:08.147Z,11.57
2019-05-01T10:03:36.411Z,10.53
2019-05-01T10:06:06.037Z,10.43
2019-05-01T10:08:34.778Z,11.37
2019-05-01T10:11:06.602Z,10.70
2019-05-01T10:13:34.859Z,10.67
2019-05-01T10:16:03.143Z,10.90
2019-05-01T10:18:31.405Z,9.97
2019-05-01T10:20:59.663Z,10.17
2019-05-01T10:23:27.945Z,9.37
2019-05-01T10:25:57.845Z,9.37
2019-05-01T10:28:36.564Z,10.10
2019-05-01T10:31:13.186Z,9.07
2019-05-01T10:33:49.459Z,10.60
2019-05-01T10:36:25.288Z,9.10
2019-05-01T10:38:53.622Z,9.63
2019-05-01T10:41:21.908Z,9.30
2019-05-01T10:43:50.171Z,10.13
2019-05-01T10:46:18.427Z,9.27
2019-05-01T10:48:46.715Z,9.93
2019-05-01T10:51:15.054Z,8.90
2019-05-01T10:53:43.388Z,10.23
2019-05-01T10:56:11.687Z,9.97
2019-05-01T10:58:39.940Z,9.40
2019-05-01T11:01:12.522Z,9.20
2019-05-01T11:03:42.761Z,8.70
2019-05-01T11:06:10.821Z,9.47
2019-05-01T11:08:39.076Z,8.80
2019-05-01T11:11:07.360Z,9.83
2019-05-01T11:13:35.627Z,9.00
2019-05-01T11:16:03.871Z,9.13
2019-05-01T11:18:32.148Z,9.33
2019-05-01T11:21:00.419Z,9.20
2019-05-01T11:23:28.667Z,9.20
2019-05-01T11:25:56.948Z,8.83
2019-05-01T11:28:25.211Z,8.70
2019-05-01T11:30:53.531Z,7.53
2019-05-01T11:33:38.140Z,8.60
2019-05-01T11:36:22.875Z,8.20
2019-05-01T11:38:52.799Z,7.20
2019-05-01T11:41:40.891Z,7.70
2019-05-01T11:44:09.273Z,7.53
2019-05-01T11:46:37.525Z,7.50
2019-05-01T11:49:05.811Z,7.97
2019-05-01T11:51:34.151Z,6.97
2019-05-01T11:54:02.863Z,7.40
2019-05-01T11:56:31.123Z,7.20
2019-05-01T11:58:59.473Z,7.20
2019-05-01T12:01:27.739Z,7.27
2019-05-01T12:03:55.988Z,8.20
2019-05-01T12:06:24.265Z,9.17
2019-05-01T12:08:52.523Z,8.23
2019-05-01T12:11:22.412Z,8.03
2019-05-01T12:13:50.687Z,7.70
2019-05-01T12:16:23.519Z,7.17
2019-05-01T12:18:51.779Z,7.70
2019-05-01T12:21:20.051Z,6.90
2019-05-01T12:23:48.303Z,8.47
2019-05-01T12:26:16.567Z,8.17
2019-05-01T12:28:44.912Z,7.57
2019-05-01T12:31:13.172Z,8.53
2019-05-01T12:33:41.427Z,8.87
2019-05-01T12:36:11.284Z,8.20
2019-05-01T12:38:39.543Z,7.53
2019-05-01T12:41:25.808Z,7.67
2019-05-01T12:43:54.064Z,7.80
2019-05-01T12:46:40.196Z,7.47
2019-05-01T12:49:08.443Z,7.97
2019-05-01T12:51:37.781Z,7.57
2019-05-01T12:54:16.855Z,6.57
2019-05-01T12:56:48.487Z,7.60
2019-05-01T12:59:16.922Z,8.10
2019-05-01T13:01:45.186Z,6.73
2019-05-01T13:04:13.444Z,6.60
2019-05-01T13:06:49.190Z,6.63
2019-05-01T13:09:11.724Z,6.10
2019-05-01T13:11:39.979Z,6.40
2019-05-01T13:14:08.240Z,6.37
2019-05-01T13:16:36.854Z,6.03
2019-05-01T13:19:05.191Z,6.43
2019-05-01T13:21:33.444Z,6.30
2019-05-01T13:24:01.719Z,5.80
2019-05-01T13:26:31.700Z,7.50
2019-05-01T13:29:04.311Z,7.07
2019-05-01T13:31:34.305Z,6.47
2019-05-01T13:34:02.611Z,7.30
2019-05-01T13:36:30.867Z,6.83
2019-05-01T13:38:59.139Z,6.33
2019-05-01T13:41:27.392Z,6.77
2019-05-01T13:43:55.951Z,7.10
2019-05-01T13:46:24.235Z,7.87
2019-05-01T13:48:52.491Z,7.37
2019-05-01T13:51:20.739Z,7.03
2019-05-01T13:53:49.023Z,7.40
2019-05-01T13:56:17.278Z,6.97
2019-05-01T13:58:45.528Z,7.97
2019-05-01T14:01:14.467Z,5.90
2019-05-01T14:03:42.723Z,6.10
2019-05-01T14:06:11.069Z,6.10
2019-05-01T14:08:39.343Z,6.57
2019-05-01T14:11:07.617Z,5.90
2019-05-01T14:13:35.923Z,5.47
2019-05-01T14:16:04.203Z,5.10
2019-05-01T14:18:32.459Z,5.70
2019-05-01T14:21:02.367Z,5.70
2019-05-01T14:23:48.562Z,5.20
2019-05-01T14:26:16.819Z,5.80
2019-05-01T14:28:45.076Z,4.63
2019-05-01T14:31:13.936Z,4.67
2019-05-01T14:33:42.187Z,5.00
2019-05-01T14:36:10.464Z,4.40
2019-05-01T14:38:38.794Z,4.43
2019-05-01T14:41:07.065Z,4.50
2019-05-01T14:43:35.467Z,4.30
2019-05-01T14:46:03.743Z,4.73
2019-05-01T14:48:32.001Z,5.00
2019-05-01T14:51:00.266Z,4.77
2019-05-01T14:53:28.559Z,4.07
2019-05-01T14:55:56.801Z,4.17
2019-05-01T14:58:25.058Z,4.40
2019-05-01T15:00:53.332Z,4.23
2019-05-01T15:03:21.578Z,4.30
2019-05-01T15:05:49.847Z,4.80
2019-05-01T15:08:18.127Z,4.77
2019-05-01T15:10:46.383Z,5.20
2019-05-01T15:13:16.278Z,4.87
2019-05-01T15:15:49.514Z,3.73
2019-05-01T15:18:28.455Z,4.17
2019-05-01T15:20:56.883Z,4.30
2019-05-01T15:23:25.144Z,4.43
2019-05-01T15:25:53.399Z,3.93
2019-05-01T15:28:21.671Z,5.10
2019-05-01T15:30:49.919Z,4.93
2019-05-01T15:33:18.187Z,4.60
2019-05-01T15:35:46.470Z,4.40
2019-05-01T15:38:14.730Z,5.00
2019-05-01T15:40:47.575Z,4.60
2019-05-01T15:43:29.250Z,4.77
2019-05-01T15:45:57.501Z,4.53
2019-05-01T15:48:27.990Z,3.97
2019-05-01T15:50:56.258Z,4.63
2019-05-01T15:53:26.153Z,4.60
2019-05-01T15:55:54.424Z,4.33
2019-05-01T15:58:22.764Z,5.20
2019-05-01T16:00:51.111Z,4.97
2019-05-01T16:03:19.363Z,4.73
2019-05-01T16:05:47.636Z,3.63
2019-05-01T16:08:15.887Z,4.53
2019-05-01T16:10:45.779Z,5.70
2019-05-01T16:13:14.055Z,5.20
2019-05-01T16:15:42.309Z,5.40
2019-05-01T16:18:10.931Z,5.27
2019-05-01T16:20:39.208Z,4.93
2019-05-01T16:23:07.473Z,5.27
2019-05-01T16:25:35.792Z,4.63
2019-05-01T16:28:04.067Z,4.70
2019-05-01T16:30:32.671Z,4.97
2019-05-01T16:33:01.003Z,5.23
2019-05-01T16:35:29.278Z,5.10
2019-05-01T16:37:59.180Z,4.60
2019-05-01T16:40:29.072Z,4.70
2019-05-01T16:42:57.356Z,4.40
2019-05-01T16:45:25.626Z,4.33
2019-05-01T16:47:53.875Z,5.07
2019-05-01T16:50:22.668Z,6.10
2019-05-01T16:52:50.992Z,5.73
2019-05-01T16:55:19.247Z,5.97
2019-05-01T16:57:47.558Z,5.33
2019-05-01T17:00:15.859Z,5.87
2019-05-01T17:02:45.760Z,6.20
2019-05-01T17:05:34.043Z,5.00
2019-05-01T17:08:04.303Z,5.97
2019-05-01T17:10:34.212Z,6.50
2019-05-01T17:13:02.955Z,5.47
2019-05-01T17:15:35.654Z,5.00
2019-05-01T17:18:03.979Z,5.33
2019-05-01T17:20:32.407Z,6.40
2019-05-01T17:23:00.755Z,6.23
2019-05-01T17:25:29.585Z,6.20
2019-05-01T17:27:57.966Z,6.97
2019-05-01T17:30:35.452Z,5.77
2019-05-01T17:33:03.747Z,6.90
2019-05-01T17:35:32.147Z,6.50
2019-05-01T17:38:00.403Z,6.77
2019-05-01T17:40:28.759Z,5.67
2019-05-01T17:42:57.086Z,6.63
2019-05-01T17:45:29.826Z,6.67
2019-05-01T17:47:57.941Z,6.80
2019-05-01T17:50:26.352Z,6.83
2019-05-01T17:52:54.628Z,6.60
2019-05-01T17:55:22.935Z,7.33
2019-05-01T17:57:51.194Z,6.83
2019-05-01T18:00:30.032Z,6.27
2019-05-01T18:03:02.855Z,6.97
2019-05-01T18:05:48.849Z,6.43
2019-05-01T18:08:19.935Z,7.07
2019-05-01T18:10:48.197Z,6.87
2019-05-01T18:13:16.491Z,7.20
2019-05-01T18:15:44.734Z,7.50
2019-05-01T18:18:15.072Z,7.33
2019-05-01T18:20:42.985Z,7.00
2019-05-01T18:23:18.631Z,7.00
2019-05-01T18:26:04.912Z,7.30
2019-05-01T18:28:41.380Z,8.23
2019-05-01T18:31:14.176Z,8.30
2019-05-01T18:33:42.441Z,8.17
2019-05-01T18:36:10.961Z,8.43
2019-05-01T18:38:47.683Z,7.53
2019-05-01T18:41:27.426Z,8.03
2019-05-01T18:43:55.767Z,7.87
2019-05-01T18:46:24.019Z,7.93
2019-05-01T18:48:52.427Z,8.33
2019-05-01T18:51:20.711Z,8.20
2019-05-01T18:53:48.963Z,10.00
2019-05-01T18:56:17.224Z,9.07
2019-05-01T18:58:45.567Z,9.23
2019-05-01T19:01:13.896Z,8.40
2019-05-01T19:03:42.694Z,7.93
2019-05-01T19:06:12.152Z,9.63
2019-05-01T19:08:40.482Z,9.03
2019-05-01T19:11:12.621Z,8.50
2019-05-01T19:13:39.419Z,9.57
2019-05-01T19:16:08.697Z,9.77
2019-05-01T19:18:37.745Z,9.53
2019-05-01T19:21:06.518Z,9.63
2019-05-01T19:23:37.753Z,9.83
2019-05-01T19:26:06.861Z,9.77
2019-05-01T19:28:35.399Z,9.83
2019-05-01T19:31:03.743Z,10.27
2019-05-01T19:33:32.018Z,9.93
2019-05-01T19:36:02.420Z,11.87
2019-05-01T19:38:34.869Z,11.50
2019-05-01T19:41:03.588Z,12.37
2019-05-01T19:43:30.516Z,12.53
2019-05-01T19:45:58.779Z,13.20
2019-05-01T19:48:27.096Z,11.90
2019-05-01T19:50:55.429Z,12.77
2019-05-01T19:53:23.739Z,13.63
2019-05-01T19:55:52.024Z,13.77
2019-05-01T19:58:20.543Z,13.10
2019-05-01T20:00:52.291Z,13.97
2019-05-01T20:03:20.867Z,14.47
2019-05-01T20:05:49.803Z,14.47
2019-05-01T20:08:22.400Z,13.87
2019-05-01T20:10:51.578Z,14.97
2019-05-01T20:13:20.105Z,14.77
2019-05-01T20:15:49.227Z,14.83
2019-05-01T20:18:17.886Z,17.77
2019-05-01T20:20:46.753Z,14.87
2019-05-01T20:23:15.472Z,14.97
2019-05-01T20:25:43.927Z,15.17
2019-05-01T20:28:12.216Z,15.80
2019-05-01T20:30:41.403Z,16.00
2019-05-01T20:33:09.666Z,15.73
2019-05-01T20:35:38.010Z,15.97
2019-05-01T20:38:06.267Z,15.93
2019-05-01T20:40:34.528Z,16.80
2019-05-01T20:43:06.033Z,16.87
2019-05-01T20:45:33.984Z,17.97
2019-05-01T20:48:02.608Z,18.80
2019-05-01T20:50:31.819Z,18.40
2019-05-01T20:53:00.156Z,18.43
2019-05-01T20:55:28.412Z,18.50
2019-05-01T20:58:13.451Z,18.33
2019-05-01T21:00:42.135Z,18.17
2019-05-01T21:03:14.297Z,17.93
2019-05-01T21:05:42.120Z,18.73
2019-05-01T21:08:12.007Z,20.20
2019-05-01T21:10:51.094Z,18.83
2019-05-01T21:13:23.113Z,19.37
2019-05-01T21:15:49.555Z,19.87
2019-05-01T21:18:20.843Z,19.53
2019-05-01T21:20:47.819Z,20.77
2019-05-01T21:23:16.084Z,20.43
2019-05-01T21:25:44.440Z,22.43
2019-05-01T21:28:14.218Z,21.00
2019-05-01T21:30:43.980Z,22.30
2019-05-01T21:33:13.889Z,21.53
2019-05-01T21:35:44.356Z,21.83
2019-05-01T21:38:12.595Z,23.40
2019-05-01T21:40:41.364Z,23.13
2019-05-01T21:43:11.027Z,22.53
2019-05-01T21:45:39.284Z,22.80
2019-05-01T21:48:07.559Z,23.43
2019-05-01T21:50:36.724Z,24.57
2019-05-01T21:53:06.893Z,24.17
2019-05-01T21:55:35.008Z,23.67
2019-05-01T21:58:05.115Z,23.23
2019-05-01T22:00:34.998Z,24.37
2019-05-01T22:03:03.846Z,23.20
2019-05-01T22:05:34.726Z,24.63
2019-05-01T22:08:03.825Z,25.97
2019-05-01T22:10:32.083Z,26.10
2019-05-01T22:13:00.420Z,25.20
2019-05-01T22:15:47.082Z,25.73
2019-05-01T22:18:19.627Z,25.10
2019-05-01T22:20:55.418Z,26.10
2019-05-01T22:23:30.835Z,25.97
2019-05-01T22:26:00.775Z,26.63
2019-05-01T22:28:30.744Z,28.13
2019-05-01T22:31:09.963Z,28.57
2019-05-01T22:33:39.287Z,27.67
2019-05-01T22:36:07.546Z,27.87
2019-05-01T22:38:37.060Z,27.53
2019-05-01T22:41:09.740Z,29.70
2019-05-01T22:43:38.007Z,29.17
2019-05-01T22:46:07.918Z,28.97
2019-05-01T22:48:36.183Z,30.83
2019-05-01T22:51:06.147Z,29.70
2019-05-01T22:53:34.431Z,30.63
2019-05-01T22:56:04.073Z,32.93
2019-05-01T22:58:32.753Z,31.93
2019-05-01T23:01:01.719Z,31.33
2019-05-01T23:03:31.688Z,33.63
2019-05-01T23:06:02.000Z,34.80
2019-05-01T23:08:30.323Z,32.87
2019-05-01T23:10:58.597Z,33.97
2019-05-01T23:13:26.921Z,34.10
2019-05-01T23:15:56.241Z,33.67
2019-05-01T23:18:25.247Z,31.77
2019-05-01T23:20:53.503Z,34.17
2019-05-01T23:23:21.788Z,33.37
2019-05-01T23:25:50.037Z,34.03
2019-05-01T23:28:18.379Z,32.77
2019-05-01T23:30:46.663Z,34.67
2019-05-01T23:33:16.255Z,34.27
2019-05-01T23:35:44.640Z,32.67
2019-05-01T23:38:12.914Z,34.00
2019-05-01T23:40:41.219Z,32.07
2019-05-01T23:43:09.518Z,32.00
2019-05-01T23:45:37.788Z,32.07
2019-05-01T23:48:06.042Z,33.10
2019-05-01T23:50:34.333Z,30.73
2019-05-01T23:53:04.279Z,31.90
2019-05-01T23:55:32.619Z,30.23
2019-05-01T23:58:00.883Z,31.73
